sensor_id;sensor_type;location;lat;lon;timestamp;temperature;humidity
10304;DHT22;5197;48.152;8.590;2023-12-29T00:00:59;6.90;11.30
10304;DHT22;5197;48.152;8.590;2023-12-29T00:03:26;6.90;11.30
10304;DHT22;5197;48.152;8.590;2023-12-29T00:05:53;7.00;12.40
10304;DHT22;5197;48.152;8.590;2023-12-29T00:08:20;6.90;11.20
10304;DHT22;5197;48.152;8.590;2023-12-29T00:10:47;7.00;12.30
10304;DHT22;5197;48.152;8.590;2023-12-29T00:13:14;7.00;11.30
10304;DHT22;5197;48.152;8.590;2023-12-29T00:15:41;6.90;11.10
10304;DHT22;5197;48.152;8.590;2023-12-29T00:18:09;6.90;11.10
10304;DHT22;5197;48.152;8.590;2023-12-29T00:20:36;6.90;11.10
10304;DHT22;5197;48.152;8.590;2023-12-29T00:23:07;6.90;11.30
10304;DHT22;5197;48.152;8.590;2023-12-29T00:25:38;6.80;11.10
10304;DHT22;5197;48.152;8.590;2023-12-29T00:28:05;6.80;11.10
10304;DHT22;5197;48.152;8.590;2023-12-29T00:30:33;6.80;11.20
10304;DHT22;5197;48.152;8.590;2023-12-29T00:33:20;6.80;11.30
10304;DHT22;5197;48.152;8.590;2023-12-29T00:35:47;6.70;11.20
10304;DHT22;5197;48.152;8.590;2023-12-29T00:38:14;6.80;11.30
10304;DHT22;5197;48.152;8.590;2023-12-29T00:40:41;6.80;11.30
10304;DHT22;5197;48.152;8.590;2023-12-29T00:43:08;6.80;11.30
10304;DHT22;5197;48.152;8.590;2023-12-29T00:45:35;6.80;10.40
10304;DHT22;5197;48.152;8.590;2023-12-29T00:48:03;6.80;11.30
10304;DHT22;5197;48.152;8.590;2023-12-29T00:50:31;6.70;11.30
10304;DHT22;5197;48.152;8.590;2023-12-29T00:52:58;6.70;11.30
10304;DHT22;5197;48.152;8.590;2023-12-29T00:55:25;6.70;11.30
10304;DHT22;5197;48.152;8.590;2023-12-29T00:57:52;6.80;11.30
10304;DHT22;5197;48.152;8.590;2023-12-29T01:00:19;6.80;11.30
10304;DHT22;5197;48.152;8.590;2023-12-29T01:02:46;6.80;11.30
10304;DHT22;5197;48.152;8.590;2023-12-29T01:05:17;6.80;12.40
10304;DHT22;5197;48.152;8.590;2023-12-29T01:07:44;6.80;11.20
10304;DHT22;5197;48.152;8.590;2023-12-29T01:10:11;6.80;11.10
10304;DHT22;5197;48.152;8.590;2023-12-29T01:12:38;6.80;11.10
10304;DHT22;5197;48.152;8.590;2023-12-29T01:15:06;6.80;11.60
10304;DHT22;5197;48.152;8.590;2023-12-29T01:17:33;6.80;11.10
10304;DHT22;5197;48.152;8.590;2023-12-29T01:20:00;6.90;11.20
10304;DHT22;5197;48.152;8.590;2023-12-29T01:22:29;6.80;11.10
10304;DHT22;5197;48.152;8.590;2023-12-29T01:24:58;6.90;11.20
10304;DHT22;5197;48.152;8.590;2023-12-29T01:27:25;6.90;12.20
10304;DHT22;5197;48.152;8.590;2023-12-29T01:29:52;6.80;11.10
10304;DHT22;5197;48.152;8.590;2023-12-29T01:32:20;6.90;11.30
10304;DHT22;5197;48.152;8.590;2023-12-29T01:34:48;6.80;11.30
10304;DHT22;5197;48.152;8.590;2023-12-29T01:37:16;6.90;11.40
10304;DHT22;5197;48.152;8.590;2023-12-29T01:39:43;6.80;11.50
10304;DHT22;5197;48.152;8.590;2023-12-29T01:42:10;6.80;11.60
10304;DHT22;5197;48.152;8.590;2023-12-29T01:44:40;6.80;11.70
10304;DHT22;5197;48.152;8.590;2023-12-29T01:47:14;6.80;11.90
10304;DHT22;5197;48.152;8.590;2023-12-29T01:49:45;6.80;12.00
10304;DHT22;5197;48.152;8.590;2023-12-29T01:52:13;6.80;12.10
10304;DHT22;5197;48.152;8.590;2023-12-29T01:54:41;6.80;12.20
10304;DHT22;5197;48.152;8.590;2023-12-29T01:57:10;6.80;12.30
10304;DHT22;5197;48.152;8.590;2023-12-29T01:59:37;6.80;12.40
10304;DHT22;5197;48.152;8.590;2023-12-29T02:02:07;6.80;12.50
10304;DHT22;5197;48.152;8.590;2023-12-29T02:04:35;6.80;12.80
10304;DHT22;5197;48.152;8.590;2023-12-29T02:07:04;6.80;12.90
10304;DHT22;5197;48.152;8.590;2023-12-29T02:09:31;6.80;13.00
10304;DHT22;5197;48.152;8.590;2023-12-29T02:12:00;6.90;13.40
10304;DHT22;5197;48.152;8.590;2023-12-29T02:14:28;6.90;13.60
10304;DHT22;5197;48.152;8.590;2023-12-29T02:17:22;7.00;13.40
10304;DHT22;5197;48.152;8.590;2023-12-29T02:19:52;7.00;13.20
10304;DHT22;5197;48.152;8.590;2023-12-29T02:22:19;7.00;13.30
10304;DHT22;5197;48.152;8.590;2023-12-29T02:24:47;7.00;13.40
10304;DHT22;5197;48.152;8.590;2023-12-29T02:30:20;7.10;13.50
10304;DHT22;5197;48.152;8.590;2023-12-29T02:32:50;7.10;13.90
10304;DHT22;5197;48.152;8.590;2023-12-29T02:35:24;7.10;13.80
10304;DHT22;5197;48.152;8.590;2023-12-29T02:37:53;7.20;13.80
10304;DHT22;5197;48.152;8.590;2023-12-29T02:40:20;7.20;13.90
10304;DHT22;5197;48.152;8.590;2023-12-29T02:42:48;7.20;13.90
10304;DHT22;5197;48.152;8.590;2023-12-29T02:45:16;7.20;14.10
10304;DHT22;5197;48.152;8.590;2023-12-29T02:47:43;7.30;14.20
10304;DHT22;5197;48.152;8.590;2023-12-29T02:50:11;7.30;14.10
10304;DHT22;5197;48.152;8.590;2023-12-29T02:52:38;7.30;14.10
10304;DHT22;5197;48.152;8.590;2023-12-29T02:55:05;7.30;14.10
10304;DHT22;5197;48.152;8.590;2023-12-29T02:57:33;7.30;14.30
10304;DHT22;5197;48.152;8.590;2023-12-29T03:00:00;7.40;14.30
10304;DHT22;5197;48.152;8.590;2023-12-29T03:02:27;7.40;14.40
10304;DHT22;5197;48.152;8.590;2023-12-29T03:04:54;7.40;14.50
10304;DHT22;5197;48.152;8.590;2023-12-29T03:07:21;7.50;14.60
10304;DHT22;5197;48.152;8.590;2023-12-29T03:09:48;7.40;14.60
10304;DHT22;5197;48.152;8.590;2023-12-29T03:12:15;7.50;14.60
10304;DHT22;5197;48.152;8.590;2023-12-29T03:14:42;7.40;14.70
10304;DHT22;5197;48.152;8.590;2023-12-29T03:17:09;7.50;14.80
10304;DHT22;5197;48.152;8.590;2023-12-29T03:19:36;7.40;14.90
10304;DHT22;5197;48.152;8.590;2023-12-29T03:22:03;7.50;15.00
10304;DHT22;5197;48.152;8.590;2023-12-29T03:24:30;7.50;15.10
10304;DHT22;5197;48.152;8.590;2023-12-29T03:26:57;7.50;15.30
10304;DHT22;5197;48.152;8.590;2023-12-29T03:29:24;7.50;15.30
10304;DHT22;5197;48.152;8.590;2023-12-29T03:31:51;7.60;15.40
10304;DHT22;5197;48.152;8.590;2023-12-29T03:34:18;7.60;15.50
10304;DHT22;5197;48.152;8.590;2023-12-29T03:36:46;7.60;15.60
10304;DHT22;5197;48.152;8.590;2023-12-29T03:39:14;7.60;15.50
10304;DHT22;5197;48.152;8.590;2023-12-29T03:41:41;7.60;15.80
10304;DHT22;5197;48.152;8.590;2023-12-29T03:44:08;7.60;15.90
10304;DHT22;5197;48.152;8.590;2023-12-29T03:46:35;7.60;15.80
10304;DHT22;5197;48.152;8.590;2023-12-29T03:49:02;7.60;15.90
10304;DHT22;5197;48.152;8.590;2023-12-29T03:51:30;7.60;16.10
10304;DHT22;5197;48.152;8.590;2023-12-29T03:53:57;7.60;16.10
10304;DHT22;5197;48.152;8.590;2023-12-29T03:56:25;7.70;16.20
10304;DHT22;5197;48.152;8.590;2023-12-29T03:58:52;7.60;16.30
10304;DHT22;5197;48.152;8.590;2023-12-29T04:01:19;7.70;16.50
10304;DHT22;5197;48.152;8.590;2023-12-29T04:03:50;7.60;16.50
10304;DHT22;5197;48.152;8.590;2023-12-29T04:06:17;7.70;16.70
10304;DHT22;5197;48.152;8.590;2023-12-29T04:08:44;7.70;17.10
10304;DHT22;5197;48.152;8.590;2023-12-29T04:11:11;7.70;17.10
10304;DHT22;5197;48.152;8.590;2023-12-29T04:13:38;7.70;17.00
10304;DHT22;5197;48.152;8.590;2023-12-29T04:16:05;7.70;17.00
10304;DHT22;5197;48.152;8.590;2023-12-29T04:18:33;7.70;17.00
10304;DHT22;5197;48.152;8.590;2023-12-29T04:21:00;7.80;17.10
10304;DHT22;5197;48.152;8.590;2023-12-29T04:23:27;7.80;17.10
10304;DHT22;5197;48.152;8.590;2023-12-29T04:25:54;7.80;17.30
10304;DHT22;5197;48.152;8.590;2023-12-29T04:28:21;7.80;17.20
10304;DHT22;5197;48.152;8.590;2023-12-29T04:30:48;7.80;17.30
10304;DHT22;5197;48.152;8.590;2023-12-29T04:33:15;7.80;17.40
10304;DHT22;5197;48.152;8.590;2023-12-29T04:35:42;7.90;17.30
10304;DHT22;5197;48.152;8.590;2023-12-29T04:38:09;7.90;17.30
10304;DHT22;5197;48.152;8.590;2023-12-29T04:40:37;7.90;17.40
10304;DHT22;5197;48.152;8.590;2023-12-29T04:43:04;7.90;17.30
10304;DHT22;5197;48.152;8.590;2023-12-29T04:45:31;8.00;17.60
10304;DHT22;5197;48.152;8.590;2023-12-29T04:47:58;7.90;17.60
10304;DHT22;5197;48.152;8.590;2023-12-29T04:50:26;8.00;17.70
10304;DHT22;5197;48.152;8.590;2023-12-29T04:52:53;8.00;17.70
10304;DHT22;5197;48.152;8.590;2023-12-29T04:55:20;8.00;17.60
10304;DHT22;5197;48.152;8.590;2023-12-29T04:57:47;8.00;17.60
10304;DHT22;5197;48.152;8.590;2023-12-29T05:00:14;8.00;17.70
10304;DHT22;5197;48.152;8.590;2023-12-29T05:02:42;8.00;17.90
10304;DHT22;5197;48.152;8.590;2023-12-29T05:05:09;8.10;18.10
10304;DHT22;5197;48.152;8.590;2023-12-29T05:07:37;8.00;18.10
10304;DHT22;5197;48.152;8.590;2023-12-29T05:10:05;8.00;18.20
10304;DHT22;5197;48.152;8.590;2023-12-29T05:12:32;8.10;18.20
10304;DHT22;5197;48.152;8.590;2023-12-29T05:14:59;8.00;18.20
10304;DHT22;5197;48.152;8.590;2023-12-29T05:17:26;8.10;18.50
10304;DHT22;5197;48.152;8.590;2023-12-29T05:19:53;8.10;18.40
10304;DHT22;5197;48.152;8.590;2023-12-29T05:22:20;8.10;18.50
10304;DHT22;5197;48.152;8.590;2023-12-29T05:24:47;8.10;18.50
10304;DHT22;5197;48.152;8.590;2023-12-29T05:27:14;8.20;18.50
10304;DHT22;5197;48.152;8.590;2023-12-29T05:29:41;8.20;18.40
10304;DHT22;5197;48.152;8.590;2023-12-29T05:32:08;8.20;18.20
10304;DHT22;5197;48.152;8.590;2023-12-29T05:34:35;8.20;18.30
10304;DHT22;5197;48.152;8.590;2023-12-29T05:37:02;8.20;18.20
10304;DHT22;5197;48.152;8.590;2023-12-29T05:39:29;8.20;18.20
10304;DHT22;5197;48.152;8.590;2023-12-29T05:41:57;8.20;18.00
10304;DHT22;5197;48.152;8.590;2023-12-29T05:44:24;8.30;17.90
10304;DHT22;5197;48.152;8.590;2023-12-29T05:46:50;8.20;17.70
10304;DHT22;5197;48.152;8.590;2023-12-29T05:49:18;8.20;17.50
10304;DHT22;5197;48.152;8.590;2023-12-29T05:51:45;8.20;17.50
10304;DHT22;5197;48.152;8.590;2023-12-29T05:54:12;8.20;17.50
10304;DHT22;5197;48.152;8.590;2023-12-29T05:56:39;8.20;17.40
10304;DHT22;5197;48.152;8.590;2023-12-29T05:59:06;8.20;17.30
10304;DHT22;5197;48.152;8.590;2023-12-29T06:01:33;8.20;17.10
10304;DHT22;5197;48.152;8.590;2023-12-29T06:04:00;8.20;16.80
10304;DHT22;5197;48.152;8.590;2023-12-29T06:06:27;8.20;16.80
10304;DHT22;5197;48.152;8.590;2023-12-29T06:08:54;8.20;16.60
10304;DHT22;5197;48.152;8.590;2023-12-29T06:11:21;8.20;16.50
10304;DHT22;5197;48.152;8.590;2023-12-29T06:13:48;8.20;16.30
10304;DHT22;5197;48.152;8.590;2023-12-29T06:16:21;8.20;16.20
10304;DHT22;5197;48.152;8.590;2023-12-29T06:18:48;8.20;16.10
10304;DHT22;5197;48.152;8.590;2023-12-29T06:21:16;8.20;15.90
10304;DHT22;5197;48.152;8.590;2023-12-29T06:23:43;8.20;15.90
10304;DHT22;5197;48.152;8.590;2023-12-29T06:26:18;8.10;15.70
10304;DHT22;5197;48.152;8.590;2023-12-29T06:28:46;8.20;15.60
10304;DHT22;5197;48.152;8.590;2023-12-29T06:31:13;8.20;15.60
10304;DHT22;5197;48.152;8.590;2023-12-29T06:33:42;8.20;15.70
10304;DHT22;5197;48.152;8.590;2023-12-29T06:36:09;8.20;15.60
10304;DHT22;5197;48.152;8.590;2023-12-29T06:38:37;8.20;15.60
10304;DHT22;5197;48.152;8.590;2023-12-29T06:41:04;8.30;15.50
10304;DHT22;5197;48.152;8.590;2023-12-29T06:43:31;8.40;15.60
10304;DHT22;5197;48.152;8.590;2023-12-29T06:45:58;8.40;15.60
10304;DHT22;5197;48.152;8.590;2023-12-29T06:48:25;8.40;15.50
10304;DHT22;5197;48.152;8.590;2023-12-29T06:50:52;8.40;15.40
10304;DHT22;5197;48.152;8.590;2023-12-29T06:53:19;8.40;15.20
10304;DHT22;5197;48.152;8.590;2023-12-29T06:55:46;8.40;14.80
10304;DHT22;5197;48.152;8.590;2023-12-29T06:58:14;8.30;14.70
10304;DHT22;5197;48.152;8.590;2023-12-29T07:00:41;8.20;14.80
10304;DHT22;5197;48.152;8.590;2023-12-29T07:03:13;8.10;14.90
10304;DHT22;5197;48.152;8.590;2023-12-29T07:05:41;8.00;15.00
10304;DHT22;5197;48.152;8.590;2023-12-29T07:08:08;8.00;15.10
10304;DHT22;5197;48.152;8.590;2023-12-29T07:10:35;7.90;15.40
10304;DHT22;5197;48.152;8.590;2023-12-29T07:13:02;7.90;15.60
10304;DHT22;5197;48.152;8.590;2023-12-29T07:15:29;7.90;15.80
10304;DHT22;5197;48.152;8.590;2023-12-29T07:17:56;7.80;15.70
10304;DHT22;5197;48.152;8.590;2023-12-29T07:20:24;7.70;15.90
10304;DHT22;5197;48.152;8.590;2023-12-29T07:22:51;7.70;15.80
10304;DHT22;5197;48.152;8.590;2023-12-29T07:25:18;7.60;16.20
10304;DHT22;5197;48.152;8.590;2023-12-29T07:27:45;7.60;16.40
10304;DHT22;5197;48.152;8.590;2023-12-29T07:30:14;7.50;16.90
10304;DHT22;5197;48.152;8.590;2023-12-29T07:32:41;7.50;16.90
10304;DHT22;5197;48.152;8.590;2023-12-29T07:35:08;7.50;17.20
10304;DHT22;5197;48.152;8.590;2023-12-29T07:37:35;7.40;17.30
10304;DHT22;5197;48.152;8.590;2023-12-29T07:40:03;7.40;17.50
10304;DHT22;5197;48.152;8.590;2023-12-29T07:42:30;7.40;17.60
10304;DHT22;5197;48.152;8.590;2023-12-29T07:44:59;7.40;17.70
10304;DHT22;5197;48.152;8.590;2023-12-29T07:47:26;7.40;18.00
10304;DHT22;5197;48.152;8.590;2023-12-29T07:49:53;7.40;19.10
10304;DHT22;5197;48.152;8.590;2023-12-29T07:52:20;7.40;18.10
10304;DHT22;5197;48.152;8.590;2023-12-29T07:54:47;7.40;18.20
10304;DHT22;5197;48.152;8.590;2023-12-29T07:57:15;7.40;18.50
10304;DHT22;5197;48.152;8.590;2023-12-29T07:59:42;7.40;18.50
10304;DHT22;5197;48.152;8.590;2023-12-29T08:02:09;7.40;18.80
10304;DHT22;5197;48.152;8.590;2023-12-29T08:04:36;7.40;19.10
10304;DHT22;5197;48.152;8.590;2023-12-29T08:07:04;7.30;19.70
10304;DHT22;5197;48.152;8.590;2023-12-29T08:09:31;7.40;19.90
10304;DHT22;5197;48.152;8.590;2023-12-29T08:12:00;7.40;19.80
10304;DHT22;5197;48.152;8.590;2023-12-29T08:14:27;7.40;19.80
10304;DHT22;5197;48.152;8.590;2023-12-29T08:16:55;7.30;19.80
10304;DHT22;5197;48.152;8.590;2023-12-29T08:19:23;7.40;19.90
10304;DHT22;5197;48.152;8.590;2023-12-29T08:21:51;7.40;19.80
10304;DHT22;5197;48.152;8.590;2023-12-29T08:24:18;7.40;19.90
10304;DHT22;5197;48.152;8.590;2023-12-29T08:26:47;7.40;19.80
10304;DHT22;5197;48.152;8.590;2023-12-29T08:29:15;7.40;19.80
10304;DHT22;5197;48.152;8.590;2023-12-29T08:31:42;7.40;19.80
10304;DHT22;5197;48.152;8.590;2023-12-29T08:34:11;7.40;19.80
10304;DHT22;5197;48.152;8.590;2023-12-29T08:36:39;7.50;19.90
10304;DHT22;5197;48.152;8.590;2023-12-29T08:39:06;7.40;19.80
10304;DHT22;5197;48.152;8.590;2023-12-29T08:41:33;7.50;19.90
10304;DHT22;5197;48.152;8.590;2023-12-29T08:44:00;7.50;19.90
10304;DHT22;5197;48.152;8.590;2023-12-29T08:46:27;7.50;19.90
10304;DHT22;5197;48.152;8.590;2023-12-29T08:48:56;7.50;20.00
10304;DHT22;5197;48.152;8.590;2023-12-29T08:51:23;7.50;19.90
10304;DHT22;5197;48.152;8.590;2023-12-29T08:53:50;7.60;20.00
10304;DHT22;5197;48.152;8.590;2023-12-29T08:56:18;7.60;20.00
10304;DHT22;5197;48.152;8.590;2023-12-29T08:58:45;7.60;20.00
10304;DHT22;5197;48.152;8.590;2023-12-29T09:01:12;7.60;20.00
10304;DHT22;5197;48.152;8.590;2023-12-29T09:03:39;7.60;20.10
10304;DHT22;5197;48.152;8.590;2023-12-29T09:06:06;7.70;20.00
10304;DHT22;5197;48.152;8.590;2023-12-29T09:08:35;7.70;20.00
10304;DHT22;5197;48.152;8.590;2023-12-29T09:11:03;7.80;20.10
10304;DHT22;5197;48.152;8.590;2023-12-29T09:13:30;7.90;20.10
10304;DHT22;5197;48.152;8.590;2023-12-29T09:15:59;7.90;20.20
10304;DHT22;5197;48.152;8.590;2023-12-29T09:18:26;8.00;20.20
10304;DHT22;5197;48.152;8.590;2023-12-29T09:20:53;8.10;20.30
10304;DHT22;5197;48.152;8.590;2023-12-29T09:23:21;8.20;20.30
10304;DHT22;5197;48.152;8.590;2023-12-29T09:25:48;8.20;19.90
10304;DHT22;5197;48.152;8.590;2023-12-29T09:28:15;8.20;19.60
10304;DHT22;5197;48.152;8.590;2023-12-29T09:30:42;8.30;19.50
10304;DHT22;5197;48.152;8.590;2023-12-29T09:33:10;8.40;19.10
10304;DHT22;5197;48.152;8.590;2023-12-29T09:35:39;8.50;19.20
10304;DHT22;5197;48.152;8.590;2023-12-29T09:38:06;8.50;18.90
10304;DHT22;5197;48.152;8.590;2023-12-29T09:40:36;8.60;18.60
10304;DHT22;5197;48.152;8.590;2023-12-29T09:43:03;8.70;18.40
10304;DHT22;5197;48.152;8.590;2023-12-29T09:45:33;8.90;18.00
10304;DHT22;5197;48.152;8.590;2023-12-29T09:48:07;9.00;17.30
10304;DHT22;5197;48.152;8.590;2023-12-29T09:50:37;9.10;16.60
10304;DHT22;5197;48.152;8.590;2023-12-29T09:53:04;9.20;15.70
10304;DHT22;5197;48.152;8.590;2023-12-29T09:55:33;9.30;15.00
10304;DHT22;5197;48.152;8.590;2023-12-29T09:58:01;9.30;14.60
10304;DHT22;5197;48.152;8.590;2023-12-29T10:00:29;9.40;14.10
10304;DHT22;5197;48.152;8.590;2023-12-29T10:02:58;9.50;13.70
10304;DHT22;5197;48.152;8.590;2023-12-29T10:05:25;9.60;13.20
10304;DHT22;5197;48.152;8.590;2023-12-29T10:07:53;9.60;12.90
10304;DHT22;5197;48.152;8.590;2023-12-29T10:10:26;9.60;12.50
10304;DHT22;5197;48.152;8.590;2023-12-29T10:12:54;9.70;11.60
10304;DHT22;5197;48.152;8.590;2023-12-29T10:15:29;9.70;11.70
10304;DHT22;5197;48.152;8.590;2023-12-29T10:21:20;9.70;10.50
10304;DHT22;5197;48.152;8.590;2023-12-29T10:23:54;9.70;9.50
10304;DHT22;5197;48.152;8.590;2023-12-29T10:26:24;9.70;10.00
10304;DHT22;5197;48.152;8.590;2023-12-29T10:28:52;9.60;10.00
10304;DHT22;5197;48.152;8.590;2023-12-29T10:31:19;9.60;9.80
10304;DHT22;5197;48.152;8.590;2023-12-29T10:33:46;9.60;9.90
10304;DHT22;5197;48.152;8.590;2023-12-29T10:36:18;9.60;10.10
10304;DHT22;5197;48.152;8.590;2023-12-29T10:38:45;9.60;10.20
10304;DHT22;5197;48.152;8.590;2023-12-29T10:41:17;9.60;10.10
10304;DHT22;5197;48.152;8.590;2023-12-29T10:43:45;9.60;10.00
10304;DHT22;5197;48.152;8.590;2023-12-29T10:46:19;9.50;10.10
10304;DHT22;5197;48.152;8.590;2023-12-29T10:48:47;9.50;10.20
10304;DHT22;5197;48.152;8.590;2023-12-29T10:51:15;9.50;9.90
10304;DHT22;5197;48.152;8.590;2023-12-29T10:53:55;9.50;10.20
10304;DHT22;5197;48.152;8.590;2023-12-29T10:56:23;9.50;10.10
10304;DHT22;5197;48.152;8.590;2023-12-29T10:59:00;9.40;10.30
10304;DHT22;5197;48.152;8.590;2023-12-29T11:01:31;9.40;10.20
10304;DHT22;5197;48.152;8.590;2023-12-29T11:06:27;9.40;10.30
10304;DHT22;5197;48.152;8.590;2023-12-29T11:08:56;9.40;10.20
10304;DHT22;5197;48.152;8.590;2023-12-29T11:11:23;9.40;11.40
10304;DHT22;5197;48.152;8.590;2023-12-29T11:13:53;9.30;10.20
10304;DHT22;5197;48.152;8.590;2023-12-29T11:16:21;9.40;10.30
10304;DHT22;5197;48.152;8.590;2023-12-29T11:18:49;9.40;10.20
10304;DHT22;5197;48.152;8.590;2023-12-29T11:21:19;9.40;10.20
10304;DHT22;5197;48.152;8.590;2023-12-29T11:23:47;9.40;10.10
10304;DHT22;5197;48.152;8.590;2023-12-29T11:26:15;9.40;9.90
10304;DHT22;5197;48.152;8.590;2023-12-29T11:28:45;9.50;9.90
10304;DHT22;5197;48.152;8.590;2023-12-29T11:31:13;9.50;9.70
10304;DHT22;5197;48.152;8.590;2023-12-29T11:33:46;9.50;9.20
10304;DHT22;5197;48.152;8.590;2023-12-29T11:36:20;9.50;8.80
10304;DHT22;5197;48.152;8.590;2023-12-29T11:39:06;9.60;8.50
10304;DHT22;5197;48.152;8.590;2023-12-29T11:42:19;9.50;7.80
10304;DHT22;5197;48.152;8.590;2023-12-29T11:44:47;9.80;6.50
10304;DHT22;5197;48.152;8.590;2023-12-29T11:47:34;9.50;7.40
10304;DHT22;5197;48.152;8.590;2023-12-29T11:50:03;9.60;6.90
10304;DHT22;5197;48.152;8.590;2023-12-29T11:52:38;9.60;7.70
10304;DHT22;5197;48.152;8.590;2023-12-29T11:55:13;9.60;6.30
10304;DHT22;5197;48.152;8.590;2023-12-29T11:57:45;9.60;6.00
10304;DHT22;5197;48.152;8.590;2023-12-29T12:00:13;9.60;5.70
10304;DHT22;5197;48.152;8.590;2023-12-29T12:02:40;9.60;5.50
10304;DHT22;5197;48.152;8.590;2023-12-29T12:05:09;9.60;5.20
10304;DHT22;5197;48.152;8.590;2023-12-29T12:12:47;9.70;4.30
10304;DHT22;5197;48.152;8.590;2023-12-29T12:17:56;9.70;4.00
10304;DHT22;5197;48.152;8.590;2023-12-29T12:20:24;9.70;3.70
10304;DHT22;5197;48.152;8.590;2023-12-29T12:22:59;9.70;3.20
10304;DHT22;5197;48.152;8.590;2023-12-29T12:25:29;9.70;3.10
10304;DHT22;5197;48.152;8.590;2023-12-29T12:27:58;9.70;2.80
10304;DHT22;5197;48.152;8.590;2023-12-29T12:30:25;9.80;3.00
10304;DHT22;5197;48.152;8.590;2023-12-29T12:33:01;9.80;2.40
10304;DHT22;5197;48.152;8.590;2023-12-29T12:35:29;9.80;1.70
10304;DHT22;5197;48.152;8.590;2023-12-29T12:38:15;9.80;2.20
10304;DHT22;5197;48.152;8.590;2023-12-29T12:40:49;9.90;1.60
10304;DHT22;5197;48.152;8.590;2023-12-29T12:43:16;9.80;1.00
10304;DHT22;5197;48.152;8.590;2023-12-29T12:45:48;9.80;1.00
10304;DHT22;5197;48.152;8.590;2023-12-29T12:48:23;9.80;1.00
10304;DHT22;5197;48.152;8.590;2023-12-29T12:50:51;9.80;1.00
10304;DHT22;5197;48.152;8.590;2023-12-29T12:53:18;9.90;1.00
10304;DHT22;5197;48.152;8.590;2023-12-29T12:55:49;9.90;1.00
10304;DHT22;5197;48.152;8.590;2023-12-29T12:58:18;9.90;1.00
10304;DHT22;5197;48.152;8.590;2023-12-29T13:00:46;9.90;1.00
10304;DHT22;5197;48.152;8.590;2023-12-29T13:03:17;9.90;1.00
10304;DHT22;5197;48.152;8.590;2023-12-29T13:05:45;9.90;1.00
10304;DHT22;5197;48.152;8.590;2023-12-29T13:08:12;9.80;1.00
10304;DHT22;5197;48.152;8.590;2023-12-29T13:10:44;9.80;1.00
10304;DHT22;5197;48.152;8.590;2023-12-29T13:13:11;9.80;1.00
10304;DHT22;5197;48.152;8.590;2023-12-29T13:15:49;9.90;1.00
10304;DHT22;5197;48.152;8.590;2023-12-29T13:18:16;9.90;1.00
10304;DHT22;5197;48.152;8.590;2023-12-29T13:20:47;9.90;1.00
10304;DHT22;5197;48.152;8.590;2023-12-29T13:23:14;9.90;1.00
10304;DHT22;5197;48.152;8.590;2023-12-29T13:25:43;9.90;1.00
10304;DHT22;5197;48.152;8.590;2023-12-29T13:28:13;10.00;1.00
10304;DHT22;5197;48.152;8.590;2023-12-29T13:30:41;9.90;1.00
10304;DHT22;5197;48.152;8.590;2023-12-29T13:33:13;10.00;1.00
10304;DHT22;5197;48.152;8.590;2023-12-29T13:35:55;10.00;1.00
10304;DHT22;5197;48.152;8.590;2023-12-29T13:38:41;10.00;1.00
10304;DHT22;5197;48.152;8.590;2023-12-29T13:41:11;10.00;1.00
10304;DHT22;5197;48.152;8.590;2023-12-29T13:43:42;10.00;1.00
10304;DHT22;5197;48.152;8.590;2023-12-29T13:46:11;10.00;1.00
10304;DHT22;5197;48.152;8.590;2023-12-29T13:48:39;10.00;1.00
10304;DHT22;5197;48.152;8.590;2023-12-29T13:51:07;10.00;1.00
10304;DHT22;5197;48.152;8.590;2023-12-29T13:53:34;10.00;1.00
10304;DHT22;5197;48.152;8.590;2023-12-29T13:56:09;10.00;1.00
10304;DHT22;5197;48.152;8.590;2023-12-29T13:58:36;10.00;1.00
10304;DHT22;5197;48.152;8.590;2023-12-29T14:01:07;10.00;1.00
10304;DHT22;5197;48.152;8.590;2023-12-29T14:03:55;10.00;1.00
10304;DHT22;5197;48.152;8.590;2023-12-29T14:06:37;10.00;1.00
10304;DHT22;5197;48.152;8.590;2023-12-29T14:09:05;10.10;1.00
10304;DHT22;5197;48.152;8.590;2023-12-29T14:11:33;10.00;1.00
10304;DHT22;5197;48.152;8.590;2023-12-29T14:14:05;10.00;1.00
10304;DHT22;5197;48.152;8.590;2023-12-29T14:16:39;10.00;1.00
10304;DHT22;5197;48.152;8.590;2023-12-29T14:19:06;10.00;1.00
10304;DHT22;5197;48.152;8.590;2023-12-29T14:21:33;10.00;1.00
10304;DHT22;5197;48.152;8.590;2023-12-29T14:24:11;10.00;1.00
10304;DHT22;5197;48.152;8.590;2023-12-29T14:26:53;9.90;1.00
10304;DHT22;5197;48.152;8.590;2023-12-29T14:29:20;9.90;1.00
10304;DHT22;5197;48.152;8.590;2023-12-29T14:31:48;9.90;1.00
10304;DHT22;5197;48.152;8.590;2023-12-29T14:34:17;9.90;1.00
10304;DHT22;5197;48.152;8.590;2023-12-29T14:36:46;9.90;1.00
10304;DHT22;5197;48.152;8.590;2023-12-29T14:39:13;9.90;1.00
10304;DHT22;5197;48.152;8.590;2023-12-29T14:41:40;9.90;1.00
10304;DHT22;5197;48.152;8.590;2023-12-29T14:44:07;9.80;1.00
10304;DHT22;5197;48.152;8.590;2023-12-29T14:46:35;9.80;1.00
10304;DHT22;5197;48.152;8.590;2023-12-29T14:49:04;9.80;1.00
10304;DHT22;5197;48.152;8.590;2023-12-29T14:51:31;9.80;1.00
10304;DHT22;5197;48.152;8.590;2023-12-29T14:53:58;9.70;1.00
10304;DHT22;5197;48.152;8.590;2023-12-29T14:56:25;9.70;1.00
10304;DHT22;5197;48.152;8.590;2023-12-29T14:58:52;9.70;1.00
10304;DHT22;5197;48.152;8.590;2023-12-29T15:01:19;9.70;1.00
10304;DHT22;5197;48.152;8.590;2023-12-29T15:03:46;9.60;1.00
10304;DHT22;5197;48.152;8.590;2023-12-29T15:06:14;9.60;1.00
10304;DHT22;5197;48.152;8.590;2023-12-29T15:08:41;9.60;1.00
10304;DHT22;5197;48.152;8.590;2023-12-29T15:11:08;9.60;1.00
10304;DHT22;5197;48.152;8.590;2023-12-29T15:13:35;9.60;1.00
10304;DHT22;5197;48.152;8.590;2023-12-29T15:16:02;9.60;1.00
10304;DHT22;5197;48.152;8.590;2023-12-29T15:18:31;9.60;1.00
10304;DHT22;5197;48.152;8.590;2023-12-29T15:20:58;9.50;1.00
10304;DHT22;5197;48.152;8.590;2023-12-29T15:23:26;9.50;1.00
10304;DHT22;5197;48.152;8.590;2023-12-29T15:25:55;9.50;1.00
10304;DHT22;5197;48.152;8.590;2023-12-29T15:28:23;9.50;1.00
10304;DHT22;5197;48.152;8.590;2023-12-29T15:30:50;9.50;1.00
10304;DHT22;5197;48.152;8.590;2023-12-29T15:33:18;9.50;1.00
10304;DHT22;5197;48.152;8.590;2023-12-29T15:35:46;9.50;1.00
10304;DHT22;5197;48.152;8.590;2023-12-29T15:38:13;9.50;1.00
10304;DHT22;5197;48.152;8.590;2023-12-29T15:40:41;9.50;1.00
10304;DHT22;5197;48.152;8.590;2023-12-29T15:43:08;9.50;1.00
10304;DHT22;5197;48.152;8.590;2023-12-29T15:45:35;9.40;1.00
10304;DHT22;5197;48.152;8.590;2023-12-29T15:48:03;9.40;1.00
10304;DHT22;5197;48.152;8.590;2023-12-29T15:50:31;9.40;1.00
10304;DHT22;5197;48.152;8.590;2023-12-29T15:52:59;9.40;1.00
10304;DHT22;5197;48.152;8.590;2023-12-29T15:55:26;9.40;1.00
10304;DHT22;5197;48.152;8.590;2023-12-29T15:57:53;9.40;1.00
10304;DHT22;5197;48.152;8.590;2023-12-29T16:00:20;9.40;1.00
10304;DHT22;5197;48.152;8.590;2023-12-29T16:02:48;9.30;1.00
10304;DHT22;5197;48.152;8.590;2023-12-29T16:05:15;9.40;1.00
10304;DHT22;5197;48.152;8.590;2023-12-29T16:07:43;9.30;1.00
10304;DHT22;5197;48.152;8.590;2023-12-29T16:10:10;9.30;1.00
10304;DHT22;5197;48.152;8.590;2023-12-29T16:12:37;9.30;1.00
10304;DHT22;5197;48.152;8.590;2023-12-29T16:15:05;9.30;1.00
10304;DHT22;5197;48.152;8.590;2023-12-29T16:17:32;9.30;1.10
10304;DHT22;5197;48.152;8.590;2023-12-29T16:19:59;9.30;1.20
10304;DHT22;5197;48.152;8.590;2023-12-29T16:22:26;9.30;1.30
10304;DHT22;5197;48.152;8.590;2023-12-29T16:24:53;9.30;1.50
10304;DHT22;5197;48.152;8.590;2023-12-29T16:27:21;9.30;1.20
10304;DHT22;5197;48.152;8.590;2023-12-29T16:29:48;9.30;1.00